Time;durP1;ratioP1;P1;durP2;ratioP2;P2;SDS_P1;SDS_P2;PMS_P1;PMS_P2;Temp;Humidity;BMP_temperature;BMP_pressure;BME280_temperature;BME280_humidity;BME280_pressure;Samples;Min_cycle;Max_cycle;Signal;HPM_P1;HPM_P2
2021/09/06 00:00:10;;;;;;;23.15;15.90;;;15.60;99.90;;;;;;4991991;28;20086;-59
2021/09/06 00:02:35;;;;;;;24.73;16.45;;;15.50;99.90;;;;;;4992774;28;20053;-59
2021/09/06 00:05:04;;;;;;;20.30;14.43;;;15.40;99.90;;;;;;4988882;28;20030;-57
2021/09/06 00:07:30;;;;;;;21.35;15.55;;;15.40;99.90;;;;;;4988242;28;20019;-58
2021/09/06 00:10:02;;;;;;;24.02;15.82;;;15.40;99.90;;;;;;4989098;28;20033;-56
2021/09/06 00:12:28;;;;;;;23.13;16.13;;;15.30;99.90;;;;;;4986240;28;20027;-58
2021/09/06 00:14:53;;;;;;;25.75;16.42;;;15.30;99.90;;;;;;4991298;28;20037;-56
2021/09/06 00:17:19;;;;;;;27.30;17.08;;;15.30;99.90;;;;;;4992192;28;20042;-58
2021/09/06 00:19:45;;;;;;;24.02;15.95;;;15.30;99.90;;;;;;4988972;28;20061;-58
2021/09/06 00:22:10;;;;;;;22.63;15.70;;;15.30;99.90;;;;;;4992520;28;20022;-57
2021/09/06 00:24:36;;;;;;;24.80;15.75;;;15.30;99.90;;;;;;4992153;28;20041;-58
2021/09/06 00:27:02;;;;;;;25.05;15.48;;;15.20;99.90;;;;;;4989286;28;20839;-57
2021/09/06 00:29:27;;;;;;;24.60;16.15;;;15.10;99.90;;;;;;4992797;28;20524;-58
2021/09/06 00:31:53;;;;;;;20.75;15.27;;;15.10;99.90;;;;;;4992541;28;20026;-57
2021/09/06 00:34:18;;;;;;;24.33;15.45;;;15.10;99.90;;;;;;4993060;28;20022;-59
2021/09/06 00:36:44;;;;;;;21.17;14.63;;;15.10;99.90;;;;;;4988710;28;20038;-58
2021/09/06 00:39:10;;;;;;;25.75;15.85;;;15.00;99.90;;;;;;4989219;28;20030;-57
2021/09/06 00:41:35;;;;;;;20.75;15.43;;;15.00;99.90;;;;;;4987538;28;20049;-56
2021/09/06 00:44:02;;;;;;;19.75;15.18;;;14.90;99.90;;;;;;4980285;28;20033;-57
2021/09/06 00:46:27;;;;;;;24.13;15.80;;;14.90;99.90;;;;;;4992794;28;20026;-54
2021/09/06 00:48:53;;;;;;;23.15;15.35;;;14.90;99.90;;;;;;4990209;28;20072;-59
2021/09/06 00:51:19;;;;;;;31.52;17.10;;;14.80;99.90;;;;;;4984006;28;20030;-59
2021/09/06 00:53:44;;;;;;;22.65;16.20;;;14.80;99.90;;;;;;4981253;28;20034;-59
2021/09/06 00:56:10;;;;;;;26.05;15.38;;;14.80;99.90;;;;;;4981990;28;20034;-59
2021/09/06 00:58:37;;;;;;;24.38;16.30;;;14.80;99.90;;;;;;4988486;28;20038;-57
2021/09/06 01:01:02;;;;;;;27.67;16.20;;;14.70;99.90;;;;;;4991790;28;20038;-59
2021/09/06 01:03:28;;;;;;;24.70;16.13;;;14.60;99.90;;;;;;4985322;28;20018;-58
2021/09/06 01:05:54;;;;;;;23.50;16.70;;;14.60;99.90;;;;;;4983836;28;20046;-59
2021/09/06 01:08:20;;;;;;;23.70;16.52;;;14.50;99.90;;;;;;4988640;28;20114;-57
2021/09/06 01:10:45;;;;;;;23.08;15.90;;;14.50;99.90;;;;;;4983312;28;20105;-58
2021/09/06 01:13:11;;;;;;;23.48;15.80;;;14.50;99.90;;;;;;4988610;28;20338;-59
2021/09/06 01:15:36;;;;;;;33.17;19.05;;;14.50;99.90;;;;;;4987488;28;20050;-55
2021/09/06 01:18:02;;;;;;;21.50;15.38;;;14.50;99.90;;;;;;4989028;28;20482;-53
2021/09/06 01:20:28;;;;;;;22.98;15.55;;;14.40;99.90;;;;;;4956727;28;20034;-54
2021/09/06 01:22:53;;;;;;;24.20;17.15;;;14.40;99.90;;;;;;4969427;28;20038;-56
2021/09/06 01:25:19;;;;;;;23.27;16.08;;;14.40;99.90;;;;;;4988680;28;20117;-56
2021/09/06 01:27:45;;;;;;;28.55;15.93;;;14.30;99.90;;;;;;4987634;28;20405;-56
2021/09/06 01:30:12;;;;;;;23.95;17.20;;;14.30;99.90;;;;;;4987616;28;20363;-57
2021/09/06 01:32:37;;;;;;;22.65;16.20;;;14.30;99.90;;;;;;4989403;28;20042;-59
2021/09/06 01:35:04;;;;;;;25.27;16.17;;;14.30;99.90;;;;;;4986294;28;20026;-57
2021/09/06 01:37:29;;;;;;;25.92;16.00;;;14.20;99.90;;;;;;4990932;28;20037;-58
2021/09/06 01:39:55;;;;;;;24.88;15.95;;;14.20;99.90;;;;;;4990474;28;20030;-57
2021/09/06 01:42:21;;;;;;;22.52;15.50;;;14.20;99.90;;;;;;5006984;23;20049;-57
2021/09/06 01:44:47;;;;;;;24.30;16.10;;;14.30;99.90;;;;;;4990629;28;20030;-59
2021/09/06 01:47:12;;;;;;;23.98;16.27;;;14.30;99.90;;;;;;4988224;28;20117;-60
2021/09/06 01:49:38;;;;;;;24.73;16.95;;;14.30;99.90;;;;;;4990722;28;20069;-60
2021/09/06 01:52:03;;;;;;;25.08;16.75;;;14.30;99.90;;;;;;4989159;28;20026;-56
2021/09/06 01:54:29;;;;;;;24.50;17.08;;;14.20;99.90;;;;;;4991484;28;20540;-57
2021/09/06 01:56:55;;;;;;;23.60;16.70;;;14.20;99.90;;;;;;4990963;28;20034;-56
2021/09/06 01:59:20;;;;;;;27.05;17.17;;;14.30;99.90;;;;;;4984951;28;20026;-58
2021/09/06 02:01:46;;;;;;;24.13;17.27;;;14.30;99.90;;;;;;4986842;28;20034;-55
2021/09/06 02:04:11;;;;;;;27.00;17.55;;;14.30;99.90;;;;;;4967311;28;20126;-57
2021/09/06 02:06:37;;;;;;;24.98;17.23;;;14.30;99.90;;;;;;4988620;28;20849;-59
2021/09/06 02:09:03;;;;;;;25.40;16.63;;;14.30;99.90;;;;;;4992549;28;20030;-58
2021/09/06 02:11:29;;;;;;;25.33;17.98;;;14.20;99.90;;;;;;4992620;28;20468;-55
2021/09/06 02:13:54;;;;;;;25.70;17.52;;;14.20;99.90;;;;;;4989790;28;20026;-58
2021/09/06 02:16:20;;;;;;;26.00;16.95;;;14.20;99.90;;;;;;4985982;28;20026;-59
2021/09/06 02:18:47;;;;;;;22.50;16.50;;;14.10;99.90;;;;;;4987782;28;20091;-58
2021/09/06 02:21:12;;;;;;;24.00;16.55;;;14.10;99.90;;;;;;4989955;28;20014;-58
2021/09/06 02:23:38;;;;;;;25.75;17.30;;;14.10;99.90;;;;;;4991024;28;20519;-55
2021/09/06 02:26:03;;;;;;;22.55;17.10;;;14.10;99.90;;;;;;4987056;28;20030;-56
2021/09/06 02:28:29;;;;;;;32.53;18.15;;;14.00;99.90;;;;;;4983423;28;20037;-58
2021/09/06 02:30:54;;;;;;;25.85;17.90;;;14.00;99.90;;;;;;4987664;28;20018;-58
2021/09/06 02:33:20;;;;;;;25.33;16.83;;;13.90;99.90;;;;;;4988847;28;20046;-59
2021/09/06 02:35:46;;;;;;;26.83;17.40;;;13.90;99.90;;;;;;4990128;28;20493;-58
2021/09/06 02:38:11;;;;;;;26.52;17.48;;;13.90;99.90;;;;;;4989510;28;20034;-59
2021/09/06 02:40:37;;;;;;;27.42;17.52;;;13.90;99.90;;;;;;4990444;28;20030;-59
2021/09/06 02:43:03;;;;;;;26.17;18.88;;;13.80;99.90;;;;;;4956001;28;20125;-57
2021/09/06 02:45:28;;;;;;;29.63;17.83;;;13.80;99.90;;;;;;4989825;28;20497;-56
2021/09/06 02:47:54;;;;;;;27.67;17.98;;;13.70;99.90;;;;;;4988865;28;20066;-58
2021/09/06 02:50:20;;;;;;;28.15;18.90;;;13.70;99.90;;;;;;4989043;28;20054;-58
2021/09/06 02:52:46;;;;;;;29.35;17.30;;;13.70;99.90;;;;;;4971657;28;20073;-59
2021/09/06 02:55:11;;;;;;;26.10;16.85;;;13.60;99.90;;;;;;4988236;28;20406;-58
2021/09/06 02:57:37;;;;;;;26.25;18.13;;;13.60;99.90;;;;;;4990534;28;20022;-58
2021/09/06 03:00:03;;;;;;;24.20;17.63;;;13.60;99.90;;;;;;4985625;28;20597;-58
2021/09/06 03:02:29;;;;;;;25.95;18.48;;;13.50;99.90;;;;;;4990017;28;20034;-59
2021/09/06 03:04:55;;;;;;;28.75;17.92;;;13.50;99.90;;;;;;4967961;28;20042;-57
2021/09/06 03:07:21;;;;;;;25.35;17.48;;;13.50;99.90;;;;;;4989885;28;20384;-57
2021/09/06 03:09:46;;;;;;;25.98;17.95;;;13.50;99.90;;;;;;4984238;28;20374;-57
2021/09/06 03:12:12;;;;;;;25.60;18.85;;;13.50;99.90;;;;;;4989989;28;20624;-56
2021/09/06 03:14:38;;;;;;;27.85;18.10;;;13.40;99.90;;;;;;4985975;28;20031;-58
2021/09/06 03:17:03;;;;;;;26.60;17.90;;;13.40;99.90;;;;;;4989303;28;20019;-53
2021/09/06 03:19:29;;;;;;;27.52;17.38;;;13.40;99.90;;;;;;4988420;28;20034;-59
2021/09/06 03:21:54;;;;;;;26.58;17.48;;;13.40;99.90;;;;;;4989993;28;20022;-55
2021/09/06 03:24:20;;;;;;;25.33;16.80;;;13.30;99.90;;;;;;4988197;28;20406;-57
2021/09/06 03:26:45;;;;;;;32.65;17.67;;;13.30;99.90;;;;;;4988952;28;20042;-58
2021/09/06 03:29:11;;;;;;;26.38;18.70;;;13.30;99.90;;;;;;4985599;28;20026;-57
2021/09/06 03:31:36;;;;;;;27.17;18.45;;;13.20;99.90;;;;;;4985063;28;20551;-57
2021/09/06 03:34:02;;;;;;;28.10;18.63;;;13.30;99.90;;;;;;4983131;28;20030;-59
2021/09/06 03:36:28;;;;;;;33.58;20.63;;;13.20;99.90;;;;;;4993600;28;20034;-58
2021/09/06 03:38:55;;;;;;;30.88;18.95;;;13.30;99.90;;;;;;4993850;28;20026;-57
2021/09/06 03:41:22;;;;;;;27.73;17.80;;;13.30;99.90;;;;;;4998390;28;20037;-59
2021/09/06 03:43:48;;;;;;;26.63;18.88;;;13.20;99.90;;;;;;4993566;28;20023;-59
2021/09/06 03:46:14;;;;;;;23.55;17.25;;;13.20;99.90;;;;;;4993314;28;20033;-56
2021/09/06 03:48:40;;;;;;;28.38;17.65;;;13.10;99.90;;;;;;4993204;28;20101;-57
2021/09/06 03:51:05;;;;;;;30.27;18.63;;;13.10;99.90;;;;;;4990600;28;20786;-57
2021/09/06 03:53:31;;;;;;;28.65;18.80;;;13.10;99.90;;;;;;4994028;28;20033;-56
2021/09/06 03:55:56;;;;;;;28.00;18.38;;;13.10;99.90;;;;;;4993675;28;20043;-58
2021/09/06 03:58:22;;;;;;;26.70;17.35;;;13.10;99.90;;;;;;4994219;28;20077;-57
2021/09/06 04:00:48;;;;;;;26.15;18.33;;;13.10;99.90;;;;;;4988185;28;20081;-57
2021/09/06 04:03:13;;;;;;;26.35;18.77;;;13.10;99.90;;;;;;4989002;28;20553;-58
2021/09/06 04:05:39;;;;;;;27.35;18.38;;;13.10;99.90;;;;;;4984823;28;20034;-55
2021/09/06 04:08:05;;;;;;;26.60;18.25;;;13.00;99.90;;;;;;4992614;28;20396;-59
2021/09/06 04:10:31;;;;;;;29.25;19.58;;;13.00;99.90;;;;;;4992511;28;20026;-55
2021/09/06 04:12:57;;;;;;;26.98;18.65;;;13.00;99.90;;;;;;4992458;28;20031;-58
2021/09/06 04:15:23;;;;;;;25.70;18.08;;;13.00;99.90;;;;;;4989870;28;20117;-56
2021/09/06 04:17:49;;;;;;;27.08;18.88;;;13.00;99.90;;;;;;4989700;28;20097;-58
2021/09/06 04:20:14;;;;;;;31.42;19.80;;;13.00;99.90;;;;;;4992608;28;20022;-58
2021/09/06 04:22:40;;;;;;;25.13;17.88;;;12.90;99.90;;;;;;4991220;28;20026;-59
2021/09/06 04:25:09;;;;;;;30.55;18.75;;;12.80;99.90;;;;;;4991634;28;20117;-58
2021/09/06 04:27:35;;;;;;;29.10;17.52;;;12.80;99.90;;;;;;4992390;28;20034;-58
2021/09/06 04:30:00;;;;;;;31.35;18.88;;;12.80;99.90;;;;;;4982826;28;20556;-58
2021/09/06 04:32:26;;;;;;;25.45;18.00;;;12.80;99.90;;;;;;4989286;28;20097;-54
2021/09/06 04:34:52;;;;;;;27.58;18.27;;;12.80;99.90;;;;;;4991892;28;20030;-58
2021/09/06 04:37:17;;;;;;;27.42;18.95;;;12.70;99.90;;;;;;4989842;28;20134;-58
2021/09/06 04:39:43;;;;;;;29.50;19.25;;;12.70;99.90;;;;;;4992086;28;20034;-59
2021/09/06 04:42:09;;;;;;;31.67;20.73;;;12.70;99.90;;;;;;4990911;28;20481;-59
2021/09/06 04:44:34;;;;;;;28.40;18.35;;;12.70;99.90;;;;;;4991742;28;20038;-58
2021/09/06 04:47:00;;;;;;;27.27;17.83;;;12.70;99.90;;;;;;4994341;28;20022;-58
2021/09/06 04:49:25;;;;;;;31.38;20.55;;;12.70;99.90;;;;;;4991939;28;20428;-58
2021/09/06 04:51:51;;;;;;;32.35;18.40;;;12.70;99.90;;;;;;4990501;28;20106;-59
2021/09/06 04:54:18;;;;;;;31.25;18.73;;;12.70;99.90;;;;;;4986288;28;20029;-58
2021/09/06 04:56:44;;;;;;;27.30;18.42;;;12.70;99.90;;;;;;4990210;28;20032;-60
2021/09/06 04:59:10;;;;;;;32.17;22.42;;;12.70;99.90;;;;;;4991197;28;20022;-58
2021/09/06 05:01:36;;;;;;;27.58;17.50;;;12.70;99.90;;;;;;4991456;28;20076;-59
2021/09/06 05:04:01;;;;;;;28.90;19.27;;;12.70;99.90;;;;;;4991860;28;20424;-59
2021/09/06 05:06:27;;;;;;;27.25;18.92;;;12.70;99.90;;;;;;4991541;28;20687;-58
2021/09/06 05:08:52;;;;;;;28.65;17.63;;;12.70;99.90;;;;;;4991995;28;20437;-56
2021/09/06 05:11:18;;;;;;;26.15;18.30;;;12.80;99.90;;;;;;4990982;28;20474;-56
2021/09/06 05:13:44;;;;;;;30.45;18.92;;;12.80;99.90;;;;;;4989113;28;20073;-58
2021/09/06 05:16:09;;;;;;;29.52;19.33;;;12.70;99.90;;;;;;4991406;28;20022;-58
2021/09/06 05:18:35;;;;;;;30.45;18.92;;;12.70;99.90;;;;;;4989781;28;20026;-58
2021/09/06 05:21:01;;;;;;;30.52;19.65;;;12.70;99.90;;;;;;4991373;28;20022;-58
2021/09/06 05:23:26;;;;;;;26.85;18.02;;;12.80;99.90;;;;;;4989698;28;20026;-59
2021/09/06 05:25:53;;;;;;;31.63;18.63;;;12.90;99.90;;;;;;4990118;28;20034;-56
2021/09/06 05:28:19;;;;;;;24.08;18.30;;;12.90;99.90;;;;;;4991563;28;20058;-57
2021/09/06 05:30:45;;;;;;;28.60;18.83;;;12.90;99.90;;;;;;4988401;28;20802;-58
2021/09/06 05:33:10;;;;;;;31.80;18.80;;;13.00;99.90;;;;;;4990994;28;20058;-59
2021/09/06 05:35:36;;;;;;;26.13;18.52;;;13.00;99.90;;;;;;4991267;28;20030;-59
2021/09/06 05:38:01;;;;;;;27.52;16.98;;;13.10;99.90;;;;;;4990736;28;20034;-56
2021/09/06 05:40:27;;;;;;;29.60;17.73;;;13.20;99.90;;;;;;4991378;28;20045;-55
2021/09/06 05:42:52;;;;;;;28.15;17.88;;;13.20;99.90;;;;;;4990085;28;20524;-57
2021/09/06 05:45:18;;;;;;;27.80;18.70;;;13.30;99.90;;;;;;4991204;28;20049;-59
2021/09/06 05:47:44;;;;;;;24.30;17.15;;;13.40;99.90;;;;;;4991177;28;20034;-57
2021/09/06 05:50:10;;;;;;;24.60;17.08;;;13.50;99.90;;;;;;4991308;28;20018;-57
2021/09/06 05:52:35;;;;;;;28.05;17.38;;;13.60;99.90;;;;;;4990929;28;20066;-56
2021/09/06 05:55:01;;;;;;;23.25;17.30;;;13.80;99.90;;;;;;4990561;28;20105;-56
2021/09/06 05:57:27;;;;;;;26.92;17.35;;;13.90;99.90;;;;;;4989708;28;20034;-56
2021/09/06 05:59:52;;;;;;;22.80;15.73;;;14.10;99.90;;;;;;4990320;28;20022;-59
2021/09/06 06:02:18;;;;;;;25.08;16.65;;;14.30;99.90;;;;;;4991455;28;20042;-61
2021/09/06 06:04:43;;;;;;;24.45;17.05;;;14.50;99.90;;;;;;4990883;28;20030;-58
2021/09/06 06:07:09;;;;;;;27.58;16.88;;;14.60;99.90;;;;;;4989566;28;20034;-55
2021/09/06 06:09:34;;;;;;;23.10;16.83;;;14.80;99.90;;;;;;4991186;28;20026;-58
2021/09/06 06:12:00;;;;;;;26.00;16.35;;;15.20;99.90;;;;;;4985527;28;20042;-59
2021/09/06 06:14:26;;;;;;;24.25;15.80;;;15.60;99.90;;;;;;4985921;28;20022;-59
2021/09/06 06:16:51;;;;;;;23.75;16.67;;;15.70;99.90;;;;;;4968804;28;20793;-58
2021/09/06 06:19:17;;;;;;;28.80;16.30;;;15.80;99.90;;;;;;4987878;28;20041;-58
2021/09/06 06:21:42;;;;;;;23.63;16.38;;;15.80;99.90;;;;;;4990013;28;20058;-57
2021/09/06 06:24:09;;;;;;;21.20;15.65;;;15.80;99.90;;;;;;4982209;28;20137;-59
2021/09/06 06:26:35;;;;;;;21.48;15.23;;;15.90;99.90;;;;;;4985870;28;20101;-59
2021/09/06 06:29:00;;;;;;;21.83;15.05;;;16.00;99.90;;;;;;4985336;28;20023;-56
2021/09/06 06:31:26;;;;;;;19.70;15.25;;;16.20;99.90;;;;;;4990035;28;20054;-59
2021/09/06 06:33:52;;;;;;;23.98;15.15;;;16.40;99.90;;;;;;4968973;28;20030;-58
2021/09/06 06:36:18;;;;;;;23.88;15.02;;;16.70;99.90;;;;;;4994355;28;20054;-58
2021/09/06 06:38:45;;;;;;;20.77;15.88;;;16.90;99.90;;;;;;4985921;28;20061;-59
2021/09/06 06:41:11;;;;;;;22.92;14.90;;;16.90;99.90;;;;;;4990130;28;20077;-56
2021/09/06 06:43:37;;;;;;;22.50;15.23;;;17.10;99.90;;;;;;4986885;28;20031;-58
2021/09/06 06:46:03;;;;;;;20.13;14.85;;;17.30;99.90;;;;;;4988592;28;20027;-59
2021/09/06 06:48:28;;;;;;;22.25;14.68;;;17.80;99.90;;;;;;4989807;28;20184;-58
2021/09/06 06:50:54;;;;;;;23.40;14.45;;;18.40;99.90;;;;;;4990505;28;20022;-58
2021/09/06 06:53:19;;;;;;;21.00;13.73;;;18.60;99.90;;;;;;4986448;28;20030;-59
2021/09/06 06:55:45;;;;;;;20.23;14.35;;;19.40;99.90;;;;;;4987424;28;20520;-58
2021/09/06 06:58:10;;;;;;;19.33;12.52;;;20.30;99.90;;;;;;4983224;28;20024;-57
2021/09/06 07:00:36;;;;;;;19.23;12.98;;;21.30;99.90;;;;;;4989710;28;20050;-60
2021/09/06 07:03:01;;;;;;;21.50;14.75;;;22.70;99.90;;;;;;4989569;28;20026;-60
2021/09/06 07:05:27;;;;;;;18.20;13.48;;;23.30;98.20;;;;;;4989288;28;20038;-56
2021/09/06 07:07:53;;;;;;;19.05;12.75;;;24.10;96.60;;;;;;4988843;28;20034;-60
2021/09/06 07:10:18;;;;;;;19.65;12.05;;;24.50;96.00;;;;;;4986063;28;20027;-57
2021/09/06 07:12:44;;;;;;;18.63;13.30;;;25.20;94.90;;;;;;4972015;28;20026;-55
2021/09/06 07:15:11;;;;;;;22.25;13.07;;;26.00;93.20;;;;;;4983506;28;20050;-54
2021/09/06 07:17:37;;;;;;;16.95;12.82;;;25.50;92.70;;;;;;4971486;28;20046;-59
2021/09/06 07:20:03;;;;;;;21.25;13.65;;;25.50;93.30;;;;;;4989342;28;20022;-61
2021/09/06 07:22:29;;;;;;;16.17;13.10;;;25.80;92.40;;;;;;4987662;28;20027;-59
2021/09/06 07:24:54;;;;;;;15.52;12.63;;;26.20;91.90;;;;;;4979785;28;20089;-59
2021/09/06 07:27:21;;;;;;;15.20;12.68;;;26.80;91.30;;;;;;4984440;28;20034;-59
2021/09/06 07:29:46;;;;;;;19.00;11.75;;;27.00;91.10;;;;;;4987093;28;20030;-60
2021/09/06 07:32:12;;;;;;;17.77;13.38;;;27.80;90.30;;;;;;4983092;28;20025;-57
2021/09/06 07:34:38;;;;;;;18.45;13.10;;;27.20;89.30;;;;;;4987523;28;20041;-57
2021/09/06 07:37:05;;;;;;;16.52;12.43;;;27.20;89.40;;;;;;4988500;28;20034;-58
2021/09/06 07:39:31;;;;;;;20.45;13.65;;;27.50;89.00;;;;;;4985122;28;20018;-61
2021/09/06 07:41:57;;;;;;;17.10;13.20;;;28.00;86.70;;;;;;4986574;28;20133;-61
2021/09/06 07:44:23;;;;;;;18.08;13.30;;;27.40;87.30;;;;;;4988300;28;20157;-54
2021/09/06 07:46:48;;;;;;;16.48;13.88;;;27.50;86.90;;;;;;4986091;28;20025;-55
2021/09/06 07:49:15;;;;;;;19.35;14.70;;;27.60;83.80;;;;;;4988683;28;20050;-59
2021/09/06 07:51:40;;;;;;;16.23;14.25;;;27.50;82.20;;;;;;4988975;28;20077;-59
2021/09/06 07:54:06;;;;;;;15.95;14.05;;;27.20;82.40;;;;;;4988836;28;20023;-59
2021/09/06 07:56:33;;;;;;;16.27;14.32;;;27.00;84.40;;;;;;4988474;28;20042;-58
2021/09/06 07:58:58;;;;;;;15.30;13.18;;;27.40;82.00;;;;;;4986278;28;20034;-57
2021/09/06 08:01:24;;;;;;;17.52;13.13;;;27.70;82.10;;;;;;4989071;28;20096;-58
2021/09/06 08:03:50;;;;;;;16.63;14.43;;;28.30;81.30;;;;;;4988415;28;20034;-57
2021/09/06 08:06:15;;;;;;;18.58;14.48;;;28.90;80.90;;;;;;4989309;28;20456;-57
2021/09/06 08:08:41;;;;;;;17.80;13.38;;;28.10;80.10;;;;;;4988548;28;20034;-59
2021/09/06 08:11:06;;;;;;;16.77;13.60;;;28.60;79.40;;;;;;4980914;28;20039;-58
2021/09/06 08:13:32;;;;;;;15.13;13.48;;;29.10;78.70;;;;;;4987246;28;20501;-59
2021/09/06 08:15:57;;;;;;;17.70;13.43;;;29.40;77.50;;;;;;4985406;28;20042;-58
2021/09/06 08:18:23;;;;;;;16.40;13.52;;;28.00;78.50;;;;;;4980391;28;20042;-52
2021/09/06 08:20:49;;;;;;;16.65;13.95;;;27.10;80.60;;;;;;4992551;28;20114;-59
2021/09/06 08:23:14;;;;;;;16.02;13.52;;;26.50;82.90;;;;;;4992094;28;20474;-60
2021/09/06 08:25:40;;;;;;;18.15;13.45;;;26.90;83.50;;;;;;4992482;28;20033;-57
2021/09/06 08:28:06;;;;;;;16.23;11.50;;;27.00;81.40;;;;;;4991719;28;20478;-61
2021/09/06 08:30:31;;;;;;;17.33;12.82;;;27.00;82.60;;;;;;4985603;28;20033;-60
2021/09/06 08:32:57;;;;;;;19.70;12.52;;;27.70;83.30;;;;;;4975863;28;20061;-58
2021/09/06 08:35:23;;;;;;;14.68;12.82;;;28.70;81.30;;;;;;4991562;28;20552;-59
2021/09/06 08:37:48;;;;;;;15.70;12.57;;;29.40;77.90;;;;;;4989049;28;20504;-59
2021/09/06 08:40:14;;;;;;;14.43;12.32;;;29.40;76.40;;;;;;4973979;28;20029;-54
2021/09/06 08:42:41;;;;;;;13.75;12.05;;;29.60;74.60;;;;;;4991270;28;20046;-59
2021/09/06 08:45:09;;;;;;;14.85;12.95;;;29.00;75.60;;;;;;4991076;28;20169;-59
2021/09/06 08:47:34;;;;;;;15.63;11.85;;;28.40;76.80;;;;;;4988863;28;20039;-60
2021/09/06 08:50:00;;;;;;;15.07;12.27;;;28.40;78.00;;;;;;4974797;28;20037;-58
2021/09/06 08:52:26;;;;;;;15.32;11.60;;;28.90;78.50;;;;;;4991143;28;20026;-59
2021/09/06 08:54:52;;;;;;;15.65;13.57;;;29.40;76.80;;;;;;4990682;28;20031;-57
2021/09/06 08:57:19;;;;;;;14.20;12.63;;;29.60;77.40;;;;;;4957409;28;20117;-59
2021/09/06 08:59:44;;;;;;;13.65;12.10;;;28.90;76.70;;;;;;4966413;28;20430;-58
2021/09/06 09:02:12;;;;;;;15.68;11.95;;;28.70;78.40;;;;;;4990161;28;20026;-58
2021/09/06 09:04:37;;;;;;;15.43;11.52;;;29.10;77.10;;;;;;4970978;28;20034;-58
2021/09/06 09:07:04;;;;;;;13.75;11.55;;;29.90;74.50;;;;;;4974019;28;20044;-60
2021/09/06 09:09:37;;;;;;;18.80;12.38;;;29.90;75.10;;;;;;4985952;28;20018;-57
2021/09/06 09:12:17;;;;;;;16.58;12.27;;;28.70;75.10;;;;;;4975574;28;20010;-59
2021/09/06 09:15:03;;;;;;;15.32;11.98;;;28.40;78.50;;;;;;4986725;28;20029;-57
2021/09/06 09:17:28;;;;;;;15.10;12.43;;;28.80;76.40;;;;;;4954279;28;20129;-59
2021/09/06 09:19:59;;;;;;;14.55;11.02;;;28.60;76.80;;;;;;4973202;28;20118;-57
2021/09/06 09:22:35;;;;;;;14.45;12.07;;;28.70;77.30;;;;;;4987761;28;20019;-57
2021/09/06 09:25:02;;;;;;;14.10;11.13;;;28.70;76.80;;;;;;4970517;28;20059;-58
2021/09/06 09:27:31;;;;;;;18.10;13.07;;;29.30;79.30;;;;;;4989108;28;20022;-59
2021/09/06 09:29:57;;;;;;;18.92;12.25;;;30.00;76.90;;;;;;4991354;28;20045;-59
2021/09/06 09:32:22;;;;;;;14.10;12.60;;;29.70;76.00;;;;;;4988801;28;20113;-59
2021/09/06 09:34:48;;;;;;;14.00;11.90;;;29.10;77.60;;;;;;4990927;28;20026;-59
2021/09/06 09:37:24;;;;;;;13.85;12.27;;;29.20;77.90;;;;;;4988118;28;20390;-56
2021/09/06 09:39:55;;;;;;;14.60;11.80;;;29.90;76.10;;;;;;4989274;28;20101;-58
2021/09/06 09:42:21;;;;;;;16.75;12.15;;;29.40;76.20;;;;;;4988720;28;20026;-59
2021/09/06 09:44:49;;;;;;;13.35;11.95;;;29.60;77.30;;;;;;4989508;28;20081;-58
2021/09/06 09:47:19;;;;;;;13.73;11.88;;;29.30;75.80;;;;;;4990403;28;20489;-58
2021/09/06 09:49:46;;;;;;;17.08;11.93;;;28.80;77.40;;;;;;4990684;28;20524;-58
2021/09/06 09:52:18;;;;;;;14.40;11.98;;;28.70;78.40;;;;;;4972630;28;20022;-58
2021/09/06 09:54:45;;;;;;;15.18;11.93;;;28.70;77.70;;;;;;4988863;28;20489;-60
2021/09/06 09:57:12;;;;;;;12.50;10.88;;;29.40;77.20;;;;;;4987967;28;20050;-57
2021/09/06 09:59:40;;;;;;;19.42;12.10;;;28.90;79.80;;;;;;4970569;28;20030;-58
2021/09/06 10:02:09;;;;;;;16.13;11.73;;;28.60;78.70;;;;;;4988548;28;20053;-57
2021/09/06 10:04:40;;;;;;;15.90;11.82;;;28.50;79.50;;;;;;4987843;28;20022;-56
2021/09/06 10:07:06;;;;;;;25.25;12.75;;;28.60;78.10;;;;;;4973240;28;20037;-59
2021/09/06 10:09:46;;;;;;;16.10;12.27;;;28.40;78.00;;;;;;4987480;28;20029;-57
2021/09/06 10:12:19;;;;;;;14.00;12.27;;;28.40;78.50;;;;;;4990014;28;20049;-57
2021/09/06 10:14:53;;;;;;;17.23;12.43;;;27.90;77.90;;;;;;4985125;28;20030;-56
2021/09/06 10:17:35;;;;;;;14.85;11.55;;;27.80;79.90;;;;;;4973133;28;20030;-58
2021/09/06 10:20:10;;;;;;;17.20;12.40;;;28.00;78.90;;;;;;4982462;28;20022;-58
2021/09/06 10:22:35;;;;;;;16.25;10.77;;;27.70;82.80;;;;;;4988652;28;20042;-56
2021/09/06 10:25:04;;;;;;;17.67;12.65;;;27.70;79.30;;;;;;4990276;28;20030;-58
2021/09/06 10:27:32;;;;;;;14.73;11.30;;;27.50;83.10;;;;;;4986629;28;20034;-57
2021/09/06 10:30:00;;;;;;;17.48;12.02;;;27.50;82.90;;;;;;4971930;28;20018;-58
2021/09/06 10:32:47;;;;;;;19.48;12.23;;;27.50;84.50;;;;;;4989114;28;20027;-57
2021/09/06 10:35:23;;;;;;;16.50;12.15;;;27.30;83.40;;;;;;4980124;28;20027;-57
2021/09/06 10:38:03;;;;;;;17.67;12.50;;;27.60;83.90;;;;;;4988405;28;20022;-58
2021/09/06 10:40:38;;;;;;;18.52;12.35;;;27.60;82.70;;;;;;4987346;28;20026;-58
2021/09/06 10:43:19;;;;;;;15.32;12.13;;;27.60;82.20;;;;;;4971285;28;20053;-58
2021/09/06 10:45:47;;;;;;;16.38;12.68;;;27.20;82.70;;;;;;4989825;28;20049;-58
2021/09/06 10:48:19;;;;;;;24.27;14.20;;;27.10;84.40;;;;;;4988879;28;20051;-57
2021/09/06 10:50:47;;;;;;;17.90;12.77;;;27.20;81.70;;;;;;4985640;28;20401;-56
2021/09/06 10:53:22;;;;;;;23.92;16.23;;;27.30;82.90;;;;;;4965949;28;20037;-58
2021/09/06 10:55:49;;;;;;;25.73;18.90;;;27.30;79.90;;;;;;4985847;28;20462;-58
2021/09/06 10:58:15;;;;;;;18.80;13.40;;;27.10;80.10;;;;;;4985811;28;20022;-59
2021/09/06 11:00:47;;;;;;;19.40;13.50;;;27.10;82.90;;;;;;4989700;28;20038;-60
2021/09/06 11:03:13;;;;;;;25.50;14.65;;;27.00;82.10;;;;;;4987853;28;20077;-58
2021/09/06 11:05:39;;;;;;;16.60;12.57;;;27.00;81.20;;;;;;4988814;28;20030;-54
2021/09/06 11:08:06;;;;;;;21.75;14.57;;;27.10;83.20;;;;;;4987212;28;20273;-59
2021/09/06 11:10:32;;;;;;;19.48;13.98;;;26.90;81.90;;;;;;4988992;28;20456;-58
2021/09/06 11:13:00;;;;;;;16.60;12.40;;;27.10;80.60;;;;;;4987043;28;20102;-58
2021/09/06 11:15:36;;;;;;;18.35;13.23;;;27.20;81.70;;;;;;4986987;28;20022;-59
2021/09/06 11:18:04;;;;;;;20.67;15.45;;;27.30;82.50;;;;;;4952880;28;20518;-59
2021/09/06 11:20:32;;;;;;;19.60;14.30;;;26.80;85.00;;;;;;4988016;28;20038;-58
2021/09/06 11:22:59;;;;;;;21.25;15.10;;;26.60;85.70;;;;;;4986665;28;20536;-57
2021/09/06 11:25:26;;;;;;;18.45;13.00;;;26.60;84.30;;;;;;4988090;28;20034;-56
2021/09/06 11:27:53;;;;;;;16.33;12.77;;;27.00;84.40;;;;;;4987717;28;20050;-58
2021/09/06 11:30:23;;;;;;;21.65;13.02;;;27.10;84.30;;;;;;4988909;28;20026;-56
2021/09/06 11:32:50;;;;;;;16.27;12.80;;;27.10;83.80;;;;;;4986986;28;20038;-55
2021/09/06 11:35:21;;;;;;;15.18;12.63;;;27.10;86.20;;;;;;4987488;28;20031;-59
2021/09/06 11:37:47;;;;;;;19.63;14.65;;;26.90;85.70;;;;;;4987817;28;20026;-56
2021/09/06 11:40:13;;;;;;;17.92;14.18;;;26.90;86.70;;;;;;4989609;28;20085;-57
2021/09/06 11:42:39;;;;;;;21.33;13.32;;;26.80;87.70;;;;;;4988603;28;20456;-57
2021/09/06 11:45:07;;;;;;;17.00;12.65;;;27.00;87.70;;;;;;4987143;28;20030;-58
2021/09/06 11:47:36;;;;;;;19.38;12.77;;;26.90;85.40;;;;;;4988169;28;20517;-58
2021/09/06 11:50:01;;;;;;;16.48;11.90;;;27.10;85.30;;;;;;4970765;28;20034;-55
2021/09/06 11:52:34;;;;;;;20.23;13.40;;;27.10;86.00;;;;;;4989513;28;20030;-59
2021/09/06 11:55:02;;;;;;;16.42;11.73;;;27.00;85.80;;;;;;4992500;28;20026;-56
2021/09/06 11:57:30;;;;;;;15.38;11.93;;;26.90;83.20;;;;;;4991183;28;20022;-59
2021/09/06 11:59:56;;;;;;;13.38;10.85;;;27.00;81.60;;;;;;4992301;28;20405;-58
2021/09/06 12:02:23;;;;;;;14.45;10.85;;;26.90;81.40;;;;;;4974046;28;20471;-58
2021/09/06 12:05:00;;;;;;;22.35;12.23;;;26.80;83.60;;;;;;4991128;28;20019;-59
2021/09/06 12:07:25;;;;;;;13.82;10.20;;;26.90;84.30;;;;;;4987562;28;20021;-59
2021/09/06 12:09:51;;;;;;;15.05;9.73;;;27.00;82.30;;;;;;4989113;28;20030;-59
2021/09/06 12:12:22;;;;;;;17.13;11.68;;;26.90;82.20;;;;;;4991572;28;20098;-56
2021/09/06 12:14:50;;;;;;;15.98;12.48;;;27.00;82.10;;;;;;4992485;28;20026;-58
2021/09/06 12:17:16;;;;;;;14.07;8.32;;;27.00;82.70;;;;;;4971408;28;20027;-57
2021/09/06 12:19:45;;;;;;;13.82;9.90;;;27.00;81.90;;;;;;4992800;28;20033;-58
2021/09/06 12:22:14;;;;;;;15.68;11.88;;;27.10;80.90;;;;;;4988040;28;20026;-58
2021/09/06 12:24:41;;;;;;;15.80;12.23;;;26.70;84.40;;;;;;4989017;28;20022;-61